Time;durP1;ratioP1;P1;durP2;ratioP2;P2;SDS_P1;SDS_P2;PMS_P1;PMS_P2;Temp;Humidity;BMP_temperature;BMP_pressure;BME280_temperature;BME280_humidity;BME280_pressure;Samples;Min_cycle;Max_cycle;Signal;HPM_P1;HPM_P2
2024/02/06 00:02:21;;;;;;;20.45;11.05;;;8.40;99.90;;;;;;5056738;28;20442;-70
2024/02/06 00:04:46;;;;;;;23.02;10.43;;;8.50;99.90;;;;;;5056548;28;20029;-70
2024/02/06 00:07:12;;;;;;;22.15;10.40;;;8.50;99.90;;;;;;5056430;28;20029;-70
2024/02/06 00:09:37;;;;;;;18.58;10.38;;;8.60;99.90;;;;;;5056726;28;20096;-70
2024/02/06 00:12:03;;;;;;;17.17;9.82;;;8.60;99.90;;;;;;5056664;28;20060;-71
2024/02/06 00:14:29;;;;;;;18.75;10.15;;;8.60;99.90;;;;;;5056510;28;20102;-70
2024/02/06 00:16:55;;;;;;;23.70;9.80;;;8.70;99.90;;;;;;5056483;28;20071;-71
2024/02/06 00:19:20;;;;;;;17.33;9.40;;;8.70;99.90;;;;;;5056240;28;20025;-71
2024/02/06 00:21:46;;;;;;;18.90;9.52;;;8.70;99.90;;;;;;5056228;28;20025;-71
2024/02/06 00:24:12;;;;;;;17.70;9.65;;;8.80;99.90;;;;;;5056178;28;20395;-71
2024/02/06 00:26:37;;;;;;;17.67;9.05;;;8.80;99.90;;;;;;5056097;28;20033;-71
2024/02/06 00:29:03;;;;;;;17.98;9.00;;;8.80;99.90;;;;;;5056096;28;20028;-70
2024/02/06 00:31:28;;;;;;;17.08;9.35;;;8.80;99.90;;;;;;5056364;28;20115;-71
2024/02/06 00:33:54;;;;;;;17.10;9.63;;;8.80;99.90;;;;;;5056081;28;20104;-71
2024/02/06 00:36:19;;;;;;;13.75;8.35;;;8.80;99.90;;;;;;5055934;28;20475;-71
2024/02/06 00:38:45;;;;;;;16.50;8.65;;;8.80;99.90;;;;;;5056060;28;20116;-70
2024/02/06 00:41:11;;;;;;;17.23;8.63;;;8.80;99.90;;;;;;5055851;28;20033;-70
2024/02/06 00:43:37;;;;;;;22.48;9.13;;;8.80;99.90;;;;;;5055736;28;20052;-70
2024/02/06 00:46:03;;;;;;;18.10;8.65;;;8.80;99.90;;;;;;5055838;28;20024;-70
2024/02/06 00:48:28;;;;;;;17.60;8.07;;;8.80;99.90;;;;;;5055740;28;20040;-71
2024/02/06 00:50:54;;;;;;;16.70;8.77;;;8.90;99.90;;;;;;5055473;28;20071;-71
2024/02/06 00:53:19;;;;;;;18.00;8.30;;;8.90;99.90;;;;;;5055604;28;20029;-71
2024/02/06 00:55:45;;;;;;;20.15;8.43;;;8.90;99.90;;;;;;5055607;28;20025;-70
2024/02/06 00:58:10;;;;;;;17.42;8.35;;;8.90;99.90;;;;;;5055590;28;20391;-71
2024/02/06 01:00:36;;;;;;;20.05;8.50;;;8.90;99.90;;;;;;5055739;28;20368;-71
2024/02/06 01:03:02;;;;;;;19.55;7.93;;;8.90;99.90;;;;;;5055667;28;20029;-72
2024/02/06 01:05:27;;;;;;;17.25;7.38;;;8.90;99.90;;;;;;5055770;28;20415;-71
2024/02/06 01:07:53;;;;;;;18.80;8.05;;;8.90;99.90;;;;;;5055244;28;20033;-71
2024/02/06 01:10:19;;;;;;;18.02;7.95;;;8.90;99.90;;;;;;5055569;28;20103;-71
2024/02/06 01:12:45;;;;;;;15.13;8.77;;;9.00;99.90;;;;;;5055295;28;20479;-70
2024/02/06 01:15:10;;;;;;;20.05;7.88;;;9.00;99.90;;;;;;5055274;28;20060;-71
2024/02/06 01:17:36;;;;;;;16.05;7.97;;;8.90;99.90;;;;;;5055170;28;20032;-71
2024/02/06 01:20:01;;;;;;;19.75;8.80;;;8.90;99.90;;;;;;5055198;28;20029;-70
2024/02/06 01:22:27;;;;;;;18.85;9.25;;;8.90;99.90;;;;;;5054898;28;20021;-71
2024/02/06 01:24:52;;;;;;;15.27;8.77;;;8.90;99.90;;;;;;5055213;28;20036;-70
2024/02/06 01:27:19;;;;;;;16.55;8.55;;;9.00;99.90;;;;;;5054925;28;20032;-70
2024/02/06 01:29:44;;;;;;;16.60;9.10;;;8.90;99.90;;;;;;5055143;28;20074;-70
2024/02/06 01:32:10;;;;;;;19.23;9.00;;;8.90;99.90;;;;;;5054900;28;20479;-71
2024/02/06 01:34:35;;;;;;;19.95;9.23;;;8.90;99.90;;;;;;5055099;28;20383;-70
2024/02/06 01:37:01;;;;;;;16.15;9.13;;;8.90;99.90;;;;;;5054868;28;20036;-71
2024/02/06 01:39:26;;;;;;;15.25;8.57;;;8.90;99.90;;;;;;5054951;28;20057;-71
2024/02/06 01:41:52;;;;;;;18.75;8.68;;;8.90;99.90;;;;;;5054729;28;20482;-71
2024/02/06 01:44:18;;;;;;;17.45;9.43;;;8.90;99.90;;;;;;5054517;28;20047;-70
2024/02/06 01:46:44;;;;;;;15.57;8.88;;;9.00;99.90;;;;;;5054725;28;20120;-71
2024/02/06 01:49:10;;;;;;;16.35;8.27;;;8.90;99.90;;;;;;5054302;28;20107;-71
2024/02/06 01:51:39;;;;;;;17.88;8.75;;;9.00;99.90;;;;;;5054629;28;20509;-70
2024/02/06 01:54:05;;;;;;;16.20;8.23;;;9.00;99.90;;;;;;5054529;28;20028;-70
2024/02/06 01:56:31;;;;;;;19.55;8.20;;;9.00;99.90;;;;;;5053354;28;20117;-70
2024/02/06 01:58:57;;;;;;;14.68;7.95;;;9.10;99.90;;;;;;5054556;28;20024;-71
2024/02/06 02:01:22;;;;;;;17.15;7.75;;;9.10;99.90;;;;;;5054617;28;20021;-71
2024/02/06 02:03:52;;;;;;;15.40;8.20;;;9.10;99.90;;;;;;5054303;28;20021;-70
2024/02/06 02:06:18;;;;;;;15.27;7.45;;;9.10;99.90;;;;;;5054511;28;20033;-71
2024/02/06 02:08:44;;;;;;;14.55;7.47;;;9.10;99.90;;;;;;5054189;28;20032;-70
2024/02/06 02:11:10;;;;;;;14.05;7.25;;;9.10;99.90;;;;;;5054200;28;20029;-70
2024/02/06 02:13:37;;;;;;;12.00;6.93;;;9.10;99.90;;;;;;5054299;28;20040;-70
2024/02/06 02:16:04;;;;;;;18.60;7.15;;;9.20;99.90;;;;;;5054093;28;20495;-70
2024/02/06 02:18:31;;;;;;;15.93;7.47;;;9.20;99.90;;;;;;5054101;28;20032;-70
2024/02/06 02:20:57;;;;;;;14.35;6.88;;;9.20;99.90;;;;;;5054278;28;20039;-71
2024/02/06 02:23:22;;;;;;;19.38;7.50;;;9.20;99.90;;;;;;5053913;28;20025;-71
2024/02/06 02:25:48;;;;;;;16.52;7.05;;;9.10;99.90;;;;;;5053991;28;20037;-71
2024/02/06 02:28:14;;;;;;;14.63;7.63;;;9.10;99.90;;;;;;5053590;28;20021;-71
2024/02/06 02:30:40;;;;;;;15.88;7.20;;;9.10;99.90;;;;;;5053782;28;20474;-70
2024/02/06 02:33:06;;;;;;;18.38;7.72;;;9.10;99.90;;;;;;5054017;28;20386;-70
2024/02/06 02:35:32;;;;;;;13.63;7.60;;;9.10;99.90;;;;;;5054039;28;20029;-70
2024/02/06 02:37:58;;;;;;;13.18;6.43;;;9.10;99.90;;;;;;5053585;28;20036;-71
2024/02/06 02:40:23;;;;;;;16.95;6.97;;;9.20;99.90;;;;;;5053601;28;20104;-71
2024/02/06 02:42:49;;;;;;;13.55;6.93;;;9.10;99.90;;;;;;5053839;28;20090;-71
2024/02/06 02:45:14;;;;;;;14.52;6.57;;;9.10;99.90;;;;;;5053456;28;20106;-71
2024/02/06 02:47:40;;;;;;;16.70;6.28;;;9.10;99.90;;;;;;5053482;28;20090;-70
2024/02/06 02:50:06;;;;;;;13.93;6.63;;;9.20;99.90;;;;;;5053543;28;20509;-71
2024/02/06 02:52:32;;;;;;;14.43;6.22;;;9.20;99.90;;;;;;5053758;28;20025;-71
2024/02/06 02:54:57;;;;;;;15.35;6.80;;;9.20;99.90;;;;;;5053647;28;20028;-71
2024/02/06 02:57:23;;;;;;;19.45;6.60;;;9.20;99.90;;;;;;5053339;28;20039;-70
2024/02/06 02:59:48;;;;;;;15.50;6.43;;;9.20;99.90;;;;;;5053563;28;20475;-71
2024/02/06 03:02:14;;;;;;;11.23;5.85;;;9.20;99.90;;;;;;5052509;28;20044;-70
2024/02/06 03:04:41;;;;;;;13.30;6.63;;;9.20;99.90;;;;;;5053468;28;20068;-71
2024/02/06 03:07:06;;;;;;;14.63;6.13;;;9.20;99.90;;;;;;5053332;28;20124;-71
2024/02/06 03:09:35;;;;;;;12.43;6.07;;;9.30;99.90;;;;;;5053261;28;20424;-70
2024/02/06 03:12:00;;;;;;;10.35;5.30;;;9.30;99.90;;;;;;5053239;28;20079;-71
2024/02/06 03:14:26;;;;;;;18.73;6.72;;;9.30;99.70;;;;;;5053367;28;20036;-71
2024/02/06 03:16:51;;;;;;;13.05;6.18;;;9.30;99.60;;;;;;5053145;28;20025;-70
2024/02/06 03:19:17;;;;;;;12.75;5.78;;;9.30;99.70;;;;;;5053379;28;20479;-70
2024/02/06 03:21:43;;;;;;;15.45;5.88;;;9.40;96.30;;;;;;5053114;28;20040;-70
2024/02/06 03:24:09;;;;;;;13.00;6.20;;;9.40;94.70;;;;;;5053094;28;20041;-71
2024/02/06 03:26:35;;;;;;;20.52;6.53;;;9.40;94.10;;;;;;5053203;28;20387;-70
2024/02/06 03:29:01;;;;;;;10.70;5.90;;;9.40;95.90;;;;;;5053341;28;20025;-70
2024/02/06 03:31:26;;;;;;;16.63;5.88;;;9.40;93.70;;;;;;5053376;28;20032;-70
2024/02/06 03:33:52;;;;;;;14.27;6.25;;;9.40;91.60;;;;;;5053088;28;20387;-71
2024/02/06 03:36:17;;;;;;;17.50;6.22;;;9.40;91.20;;;;;;5052970;28;20051;-71
2024/02/06 03:38:44;;;;;;;14.90;6.80;;;9.40;92.50;;;;;;5053147;28;20383;-71
2024/02/06 03:41:09;;;;;;;14.48;5.63;;;9.40;91.00;;;;;;5053082;28;20443;-71
2024/02/06 03:43:35;;;;;;;14.85;6.60;;;9.40;90.30;;;;;;5052587;28;20179;-70
2024/02/06 03:46:00;;;;;;;17.20;5.90;;;9.40;88.70;;;;;;5052976;28;20068;-71
2024/02/06 03:48:26;;;;;;;11.40;5.78;;;9.40;88.30;;;;;;5053026;28;20043;-70
2024/02/06 03:50:51;;;;;;;15.25;5.45;;;9.50;84.40;;;;;;5052796;28;20021;-70
2024/02/06 03:53:17;;;;;;;14.55;6.47;;;9.50;81.00;;;;;;5052876;28;20498;-70
2024/02/06 03:55:42;;;;;;;12.68;4.97;;;9.50;82.10;;;;;;5052977;28;20021;-70
2024/02/06 03:58:09;;;;;;;17.55;6.28;;;9.50;80.10;;;;;;5053052;28;20029;-70
2024/02/06 04:00:35;;;;;;;14.85;5.85;;;9.50;85.20;;;;;;5052633;28;20058;-70
2024/02/06 04:03:00;;;;;;;11.15;5.72;;;9.50;79.80;;;;;;5052840;28;20096;-71
2024/02/06 04:05:26;;;;;;;13.00;5.75;;;9.50;80.10;;;;;;5052661;28;20124;-71
2024/02/06 04:07:52;;;;;;;11.43;5.72;;;9.50;82.80;;;;;;5052552;28;20024;-71
2024/02/06 04:10:18;;;;;;;15.27;6.35;;;9.50;85.10;;;;;;5052856;28;20068;-70
2024/02/06 04:12:43;;;;;;;11.10;5.30;;;9.50;77.80;;;;;;5054271;28;20114;-70
2024/02/06 04:15:09;;;;;;;16.83;6.07;;;9.50;81.50;;;;;;5056430;28;20032;-70
2024/02/06 04:17:35;;;;;;;14.35;5.30;;;9.50;76.30;;;;;;5056355;28;20028;-70
2024/02/06 04:20:00;;;;;;;14.48;5.82;;;9.50;78.30;;;;;;5056616;28;20085;-70
2024/02/06 04:22:26;;;;;;;15.10;6.07;;;9.60;77.10;;;;;;5056048;28;20029;-71
2024/02/06 04:24:51;;;;;;;20.40;6.97;;;9.60;77.20;;;;;;5056415;28;20033;-71
2024/02/06 04:27:18;;;;;;;16.38;5.85;;;9.60;72.40;;;;;;5056283;28;20079;-71
2024/02/06 04:29:43;;;;;;;13.77;5.63;;;9.60;67.90;;;;;;5056144;28;20534;-71
2024/02/06 04:32:09;;;;;;;11.38;5.43;;;9.60;68.90;;;;;;5056128;28;20028;-71
2024/02/06 04:34:34;;;;;;;14.98;5.65;;;9.60;64.60;;;;;;5055772;28;20021;-70
2024/02/06 04:37:00;;;;;;;12.30;5.75;;;9.60;65.60;;;;;;5056074;28;20076;-71
2024/02/06 04:39:25;;;;;;;20.90;5.68;;;9.60;67.70;;;;;;5056016;28;20060;-71
2024/02/06 04:41:52;;;;;;;20.25;6.93;;;9.60;63.90;;;;;;5056088;28;20033;-71
2024/02/06 04:44:17;;;;;;;14.02;6.03;;;9.60;63.80;;;;;;5055638;28;20048;-71
2024/02/06 04:46:43;;;;;;;15.70;6.25;;;9.60;67.50;;;;;;5055771;28;20415;-71
2024/02/06 04:49:09;;;;;;;14.80;5.93;;;9.60;68.10;;;;;;5055954;28;20029;-71
2024/02/06 04:51:36;;;;;;;14.25;6.32;;;9.60;70.40;;;;;;5055868;28;20017;-70
2024/02/06 04:54:02;;;;;;;13.38;6.55;;;9.60;79.10;;;;;;5055773;28;20064;-71
2024/02/06 04:56:28;;;;;;;16.15;6.85;;;9.60;78.70;;;;;;5055773;28;20390;-71
2024/02/06 04:58:53;;;;;;;14.00;6.82;;;9.60;85.90;;;;;;5055732;28;20105;-71
2024/02/06 05:01:20;;;;;;;16.05;6.22;;;9.60;90.90;;;;;;5055527;28;20040;-71
2024/02/06 05:03:46;;;;;;;15.10;6.03;;;9.50;93.60;;;;;;5055682;28;20028;-71
2024/02/06 05:06:11;;;;;;;13.13;5.25;;;9.50;93.10;;;;;;5055536;28;20402;-71
2024/02/06 05:08:38;;;;;;;11.57;5.45;;;9.50;91.60;;;;;;5055325;28;20102;-70
2024/02/06 05:11:04;;;;;;;17.67;6.43;;;9.50;91.50;;;;;;5055403;28;20479;-70
2024/02/06 05:13:30;;;;;;;13.15;5.65;;;9.50;92.90;;;;;;5055162;28;20032;-71
2024/02/06 05:15:56;;;;;;;14.52;5.50;;;9.50;93.90;;;;;;5055195;28;20029;-71
2024/02/06 05:18:21;;;;;;;18.80;6.07;;;9.50;96.40;;;;;;5055147;28;20542;-71
2024/02/06 05:20:47;;;;;;;15.30;5.68;;;9.50;96.70;;;;;;5054990;28;20388;-71
2024/02/06 05:23:14;;;;;;;13.57;5.50;;;9.40;99.90;;;;;;5054813;28;20039;-71
2024/02/06 05:25:41;;;;;;;10.55;5.35;;;9.50;98.90;;;;;;5054263;28;20041;-70
2024/02/06 05:28:06;;;;;;;18.88;6.05;;;9.40;99.90;;;;;;5055001;28;20139;-70
2024/02/06 05:30:32;;;;;;;14.35;5.47;;;9.40;99.90;;;;;;5055254;28;20086;-71
2024/02/06 05:32:58;;;;;;;10.25;5.30;;;9.40;99.90;;;;;;5054909;28;20428;-70
2024/02/06 05:35:23;;;;;;;14.15;6.00;;;9.40;99.90;;;;;;5055047;28;20029;-70
2024/02/06 05:37:49;;;;;;;13.32;5.25;;;9.40;99.90;;;;;;5055033;28;20032;-71
2024/02/06 05:40:15;;;;;;;18.88;6.60;;;9.40;99.90;;;;;;5054833;28;20036;-70
2024/02/06 05:42:41;;;;;;;10.48;6.03;;;9.30;99.90;;;;;;5054773;28;20029;-70
2024/02/06 05:45:08;;;;;;;16.63;6.60;;;9.30;99.90;;;;;;5054623;28;20564;-69
2024/02/06 05:47:33;;;;;;;15.45;6.45;;;9.20;99.90;;;;;;5053476;28;20029;-70
2024/02/06 05:49:59;;;;;;;15.48;5.68;;;9.20;99.90;;;;;;5054727;28;20032;-70
2024/02/06 05:52:24;;;;;;;18.77;6.30;;;9.20;99.90;;;;;;5054727;28;20071;-70
2024/02/06 05:54:50;;;;;;;17.67;6.57;;;9.20;99.90;;;;;;5054353;28;20061;-71
2024/02/06 05:57:15;;;;;;;13.95;6.20;;;9.20;99.90;;;;;;5054793;28;20028;-70
2024/02/06 05:59:41;;;;;;;16.70;6.65;;;9.20;99.90;;;;;;5054467;28;20051;-70
2024/02/06 06:02:06;;;;;;;13.40;6.78;;;9.20;99.90;;;;;;5054454;28;20108;-71
2024/02/06 06:04:32;;;;;;;15.73;6.10;;;9.20;99.90;;;;;;5054437;28;20033;-71
2024/02/06 06:06:57;;;;;;;11.55;6.38;;;9.20;99.90;;;;;;5054024;28;20090;-71
2024/02/06 06:09:23;;;;;;;19.00;6.93;;;9.20;99.90;;;;;;5054207;28;20035;-71
2024/02/06 06:11:48;;;;;;;23.80;7.60;;;9.20;99.90;;;;;;5054202;28;20029;-71
2024/02/06 06:14:14;;;;;;;14.85;6.88;;;9.20;99.90;;;;;;5054355;28;20083;-71
2024/02/06 06:16:41;;;;;;;16.65;6.55;;;9.20;99.90;;;;;;5054441;28;20024;-71
2024/02/06 06:19:06;;;;;;;15.55;6.28;;;9.20;99.90;;;;;;5054376;28;20443;-71
2024/02/06 06:21:33;;;;;;;16.20;6.47;;;9.30;99.90;;;;;;5054377;28;20029;-71
2024/02/06 06:23:58;;;;;;;13.68;7.00;;;9.30;99.90;;;;;;5053977;28;20028;-71
2024/02/06 06:26:24;;;;;;;16.10;7.57;;;9.20;99.90;;;;;;5054072;28;20025;-71
2024/02/06 06:28:49;;;;;;;16.88;7.68;;;9.10;99.90;;;;;;5053884;28;20025;-71
2024/02/06 06:31:17;;;;;;;16.75;7.38;;;9.10;99.90;;;;;;5053935;28;20498;-71
2024/02/06 06:33:43;;;;;;;22.98;8.77;;;9.00;99.90;;;;;;5053894;28;20387;-71
2024/02/06 06:36:09;;;;;;;16.58;8.27;;;9.00;99.90;;;;;;5053742;28;20029;-71
2024/02/06 06:38:34;;;;;;;23.27;8.70;;;9.00;99.90;;;;;;5053875;28;20036;-71
2024/02/06 06:41:00;;;;;;;19.90;8.65;;;8.90;99.90;;;;;;5054319;28;20032;-71
2024/02/06 06:43:26;;;;;;;14.80;7.90;;;9.00;99.90;;;;;;5053581;28;20044;-71
2024/02/06 06:45:51;;;;;;;23.02;8.57;;;9.00;99.90;;;;;;5053577;28;20025;-72
2024/02/06 06:48:17;;;;;;;16.35;8.65;;;9.00;99.90;;;;;;5053475;28;20036;-71
2024/02/06 06:50:42;;;;;;;18.48;8.52;;;9.00;99.90;;;;;;5053722;28;20029;-71
2024/02/06 06:53:09;;;;;;;23.60;8.77;;;9.00;99.90;;;;;;5053581;28;20529;-71
2024/02/06 06:55:34;;;;;;;15.15;7.25;;;9.00;99.90;;;;;;5053696;28;20060;-71
2024/02/06 06:58:00;;;;;;;13.20;7.70;;;9.10;99.90;;;;;;5053290;28;20542;-71
2024/02/06 07:00:25;;;;;;;14.50;8.02;;;9.10;99.90;;;;;;5053528;28;20025;-70
2024/02/06 07:02:52;;;;;;;15.73;7.70;;;9.10;99.90;;;;;;5053412;28;20036;-70
2024/02/06 07:05:22;;;;;;;22.65;8.07;;;9.10;99.90;;;;;;5052742;28;20507;-70
2024/02/06 07:07:47;;;;;;;20.38;9.18;;;9.10;99.90;;;;;;5052314;28;20041;-70
2024/02/06 07:10:13;;;;;;;17.27;8.23;;;9.10;99.90;;;;;;5052778;28;20079;-71
2024/02/06 07:12:38;;;;;;;22.13;8.15;;;9.10;99.90;;;;;;5052855;28;20107;-71
2024/02/06 07:15:04;;;;;;;17.00;7.80;;;9.20;99.90;;;;;;5053117;28;20029;-71
2024/02/06 07:17:30;;;;;;;17.17;8.45;;;9.20;99.90;;;;;;5052912;28;20387;-71
2024/02/06 07:19:56;;;;;;;16.15;8.68;;;9.20;99.90;;;;;;5053315;28;20040;-71
2024/02/06 07:22:22;;;;;;;19.10;7.63;;;9.20;99.90;;;;;;5053004;28;20027;-71
2024/02/06 07:24:47;;;;;;;15.57;7.22;;;9.20;99.90;;;;;;5052103;28;20536;-71
2024/02/06 07:27:13;;;;;;;17.52;8.18;;;9.30;99.90;;;;;;5052645;28;20041;-72
2024/02/06 07:29:38;;;;;;;16.52;7.63;;;9.30;99.90;;;;;;5052992;28;20116;-71
2024/02/06 07:32:04;;;;;;;18.02;7.53;;;9.30;99.90;;;;;;5053139;28;20041;-72
2024/02/06 07:34:30;;;;;;;16.52;7.25;;;9.40;99.90;;;;;;5052934;28;20037;-71
2024/02/06 07:36:55;;;;;;;22.27;8.57;;;9.40;99.90;;;;;;5052976;28;20035;-71
2024/02/06 07:39:21;;;;;;;23.65;8.98;;;9.40;99.90;;;;;;5052949;28;20107;-71
2024/02/06 07:41:47;;;;;;;19.08;7.20;;;9.40;99.90;;;;;;5052500;28;20393;-72
2024/02/06 07:44:12;;;;;;;13.75;8.02;;;9.40;99.90;;;;;;5052063;28;20119;-70
2024/02/06 07:46:38;;;;;;;20.25;7.70;;;9.40;99.90;;;;;;5052470;28;20033;-71
2024/02/06 07:49:04;;;;;;;21.23;8.25;;;9.50;99.90;;;;;;5056135;28;20029;-71
2024/02/06 07:51:29;;;;;;;16.95;7.50;;;9.50;99.90;;;;;;5056606;28;20032;-71
2024/02/06 07:53:56;;;;;;;15.70;7.40;;;9.50;99.90;;;;;;5056750;28;20067;-71
2024/02/06 07:56:22;;;;;;;16.75;8.20;;;9.50;99.90;;;;;;5056506;28;20383;-71
2024/02/06 07:58:48;;;;;;;18.35;7.82;;;9.60;99.90;;;;;;5056432;28;20028;-71
2024/02/06 08:01:14;;;;;;;21.00;7.90;;;9.60;99.90;;;;;;5053961;28;20032;-71
2024/02/06 08:03:40;;;;;;;19.65;8.00;;;9.60;99.90;;;;;;5047896;28;20166;-70
2024/02/06 08:06:06;;;;;;;15.30;7.30;;;9.60;99.90;;;;;;5054813;28;20115;-70
2024/02/06 08:08:31;;;;;;;17.67;7.18;;;9.70;99.90;;;;;;5056484;28;20048;-71
2024/02/06 08:10:57;;;;;;;16.90;7.40;;;9.70;99.90;;;;;;5056540;28;20094;-71
2024/02/06 08:13:22;;;;;;;23.58;7.28;;;9.70;99.90;;;;;;5056007;28;20067;-71
2024/02/06 08:15:48;;;;;;;19.00;7.15;;;9.70;99.90;;;;;;5056814;28;20044;-71
2024/02/06 08:18:15;;;;;;;16.25;7.47;;;9.70;99.90;;;;;;5064399;28;20039;-71
2024/02/06 08:20:41;;;;;;;17.95;6.93;;;9.70;99.90;;;;;;5062854;28;20379;-71
2024/02/06 08:23:07;;;;;;;15.30;7.18;;;9.70;99.90;;;;;;5062351;28;20055;-70
2024/02/06 08:25:33;;;;;;;21.75;7.88;;;9.70;99.90;;;;;;5055894;28;20051;-71
2024/02/06 08:27:59;;;;;;;17.33;7.47;;;9.70;99.90;;;;;;5055455;28;20108;-71
2024/02/06 08:30:24;;;;;;;18.65;7.05;;;9.70;99.90;;;;;;5056065;28;20021;-71
2024/02/06 08:32:50;;;;;;;20.08;7.35;;;9.70;99.90;;;;;;5055652;28;20060;-71
2024/02/06 08:35:15;;;;;;;13.73;6.68;;;9.70;99.90;;;;;;5055978;28;20040;-71
2024/02/06 08:37:41;;;;;;;19.90;7.57;;;9.70;99.90;;;;;;5055820;28;20036;-71
2024/02/06 08:40:07;;;;;;;20.73;7.55;;;9.70;99.90;;;;;;5056172;28;20498;-70
2024/02/06 08:42:37;;;;;;;19.58;7.35;;;9.80;99.90;;;;;;5051729;28;20029;-71
2024/02/06 08:45:04;;;;;;;17.65;6.75;;;9.80;99.90;;;;;;5054550;28;20102;-71
2024/02/06 08:47:29;;;;;;;14.82;7.10;;;9.90;99.90;;;;;;5051788;28;20106;-72
2024/02/06 08:49:55;;;;;;;18.67;6.90;;;9.90;99.90;;;;;;5055751;28;20471;-71
2024/02/06 08:52:21;;;;;;;17.15;7.00;;;9.90;99.90;;;;;;5055476;28;20479;-71
2024/02/06 08:54:47;;;;;;;18.73;6.78;;;9.90;99.90;;;;;;5055780;28;20032;-71
2024/02/06 08:57:12;;;;;;;21.83;7.75;;;9.90;99.90;;;;;;5055375;28;20094;-72
2024/02/06 08:59:38;;;;;;;19.52;7.05;;;9.90;99.90;;;;;;5054362;28;20033;-71
2024/02/06 09:02:04;;;;;;;16.42;7.65;;;9.90;99.90;;;;;;5055498;28;20044;-71
2024/02/06 09:04:30;;;;;;;19.38;6.65;;;9.80;99.90;;;;;;5055361;28;20033;-72
2024/02/06 09:06:55;;;;;;;18.45;7.03;;;9.80;99.90;;;;;;5055069;28;20402;-72
2024/02/06 09:09:22;;;;;;;13.50;7.57;;;9.80;99.90;;;;;;5054973;28;20036;-71
2024/02/06 09:11:48;;;;;;;16.98;7.45;;;9.80;99.90;;;;;;5055384;28;20119;-71
2024/02/06 09:14:14;;;;;;;20.58;7.60;;;9.80;99.90;;;;;;5055130;28;20025;-72
2024/02/06 09:16:39;;;;;;;17.02;7.57;;;9.80;99.90;;;;;;5053749;28;20403;-71
2024/02/06 09:19:05;;;;;;;23.40;8.68;;;9.80;99.90;;;;;;5056003;28;20035;-71
2024/02/06 09:21:32;;;;;;;20.42;6.50;;;9.80;99.90;;;;;;5053858;28;20025;-71
2024/02/06 09:23:58;;;;;;;19.10;7.18;;;9.80;99.90;;;;;;5053756;28;20040;-71
2024/02/06 09:26:24;;;;;;;17.95;6.95;;;9.80;99.90;;;;;;5054181;28;20037;-72
2024/02/06 09:28:49;;;;;;;16.15;6.78;;;9.90;99.90;;;;;;5054125;28;20033;-72
2024/02/06 09:31:15;;;;;;;17.63;7.35;;;9.90;99.90;;;;;;5054388;28;20037;-70
2024/02/06 09:33:41;;;;;;;20.77;6.70;;;9.90;99.90;;;;;;5054782;28;20092;-71
2024/02/06 09:36:08;;;;;;;18.45;6.25;;;9.90;99.90;;;;;;5055197;28;20020;-71
2024/02/06 09:38:33;;;;;;;15.10;6.10;;;9.90;99.90;;;;;;5054737;28;20068;-71
2024/02/06 09:41:00;;;;;;;16.02;5.93;;;10.00;99.90;;;;;;5053755;28;20053;-71
2024/02/06 09:43:26;;;;;;;18.38;6.32;;;10.10;99.90;;;;;;5054539;28;20040;-72
2024/02/06 09:45:52;;;;;;;15.13;6.13;;;10.20;99.90;;;;;;5054331;28;20429;-71
2024/02/06 09:48:18;;;;;;;19.20;5.80;;;10.30;99.90;;;;;;5054549;28;20075;-71
2024/02/06 09:50:44;;;;;;;17.17;6.18;;;10.30;99.20;;;;;;5054465;28;20024;-71
2024/02/06 09:53:10;;;;;;;15.02;6.30;;;10.40;99.90;;;;;;5054956;28;20037;-71
2024/02/06 09:55:37;;;;;;;16.23;5.57;;;10.40;96.80;;;;;;5054630;28;20425;-71
2024/02/06 09:58:04;;;;;;;15.00;5.78;;;10.50;92.00;;;;;;5054241;28;20467;-71
2024/02/06 10:00:31;;;;;;;20.70;6.25;;;10.50;91.30;;;;;;5054376;28;20037;-71
2024/02/06 10:03:01;;;;;;;14.45;5.05;;;10.60;84.50;;;;;;5054339;28;20039;-71
2024/02/06 10:05:31;;;;;;;13.68;5.55;;;10.60;86.50;;;;;;5054156;28;20036;-71
2024/02/06 10:07:58;;;;;;;15.45;5.20;;;10.60;87.50;;;;;;5054165;28;20025;-71
2024/02/06 10:10:24;;;;;;;15.80;5.68;;;10.60;79.50;;;;;;5051960;28;20037;-70
2024/02/06 10:12:49;;;;;;;11.02;5.45;;;10.60;79.90;;;;;;5050360;28;20025;-70
2024/02/06 10:15:17;;;;;;;15.55;5.40;;;10.70;60.60;;;;;;5049548;28;20033;-71
2024/02/06 10:17:43;;;;;;;14.32;4.80;;;10.80;58.10;;;;;;5049938;28;20037;-70
2024/02/06 10:20:10;;;;;;;15.02;5.82;;;10.90;51.80;;;;;;5049889;28;20550;-71
2024/02/06 10:22:37;;;;;;;13.80;5.50;;;11.00;42.10;;;;;;5050345;28;20056;-71
2024/02/06 10:25:04;;;;;;;11.82;5.10;;;10.90;47.20;;;;;;5051292;28;20534;-71
2024/02/06 10:27:30;;;;;;;10.48;4.82;;;10.80;76.20;;;;;;5048539;28;21008;-71
2024/02/06 10:29:58;;;;;;;12.02;4.43;;;10.80;86.90;;;;;;5049930;28;20592;-70
2024/02/06 10:32:31;;;;;;;12.40;5.22;;;10.60;99.90;;;;;;5049664;28;20021;-70
2024/02/06 10:35:05;;;;;;;10.15;4.53;;;10.40;99.90;;;;;;5049708;28;20424;-70
2024/02/06 10:37:35;;;;;;;12.70;5.18;;;10.20;99.90;;;;;;5053455;28;20148;-71
2024/02/06 10:40:16;;;;;;;10.95;5.88;;;10.20;99.90;;;;;;5054456;28;20052;-71
2024/02/06 10:42:42;;;;;;;14.48;5.85;;;10.20;99.90;;;;;;5053214;28;20063;-71
2024/02/06 10:45:14;;;;;;;16.70;6.72;;;10.20;99.90;;;;;;5052782;28;20044;-71
2024/02/06 10:47:41;;;;;;;10.65;6.07;;;10.10;99.90;;;;;;5033787;28;20043;-71
2024/02/06 10:50:10;;;;;;;15.57;7.13;;;10.00;99.90;;;;;;5040490;28;20449;-71
2024/02/06 10:52:35;;;;;;;14.10;7.13;;;10.00;99.90;;;;;;5052867;28;20025;-71
2024/02/06 10:55:03;;;;;;;15.63;7.00;;;9.90;99.90;;;;;;5053084;28;20398;-71
2024/02/06 10:57:33;;;;;;;14.68;7.35;;;9.90;99.90;;;;;;5053318;28;20027;-71
2024/02/06 11:00:08;;;;;;;15.02;7.80;;;9.90;99.90;;;;;;5053100;28;20510;-71
2024/02/06 11:02:34;;;;;;;19.27;8.70;;;10.00;99.90;;;;;;5051917;28;20029;-71
2024/02/06 11:05:26;;;;;;;12.15;8.32;;;10.00;99.90;;;;;;5052108;28;20029;-71
2024/02/06 11:07:57;;;;;;;16.70;8.90;;;10.00;99.90;;;;;;5050227;28;20029;-71
2024/02/06 11:10:30;;;;;;;19.48;8.88;;;10.00;99.90;;;;;;5053555;28;20529;-71
2024/02/06 11:13:05;;;;;;;16.75;8.25;;;10.10;99.90;;;;;;5050508;28;20556;-71
2024/02/06 11:15:34;;;;;;;13.90;8.40;;;10.20;99.90;;;;;;5053624;28;20025;-71
2024/02/06 11:18:00;;;;;;;19.65;8.30;;;10.20;99.90;;;;;;5033759;28;20037;-71
2024/02/06 11:20:30;;;;;;;17.52;7.57;;;10.20;99.90;;;;;;5051685;28;20032;-71
2024/02/06 11:22:59;;;;;;;18.55;7.00;;;10.20;99.90;;;;;;5050640;28;20394;-71
2024/02/06 11:25:29;;;;;;;15.68;7.30;;;10.10;99.90;;;;;;5052600;28;20020;-71
2024/02/06 11:27:55;;;;;;;14.85;7.50;;;10.10;99.90;;;;;;5053061;28;20032;-71
2024/02/06 11:30:22;;;;;;;14.43;7.22;;;10.10;99.90;;;;;;5052248;28;20425;-71
2024/02/06 11:32:48;;;;;;;17.92;7.20;;;10.20;99.90;;;;;;5052684;28;20101;-71
2024/02/06 11:35:14;;;;;;;16.42;7.47;;;10.20;99.90;;;;;;5052730;28;20034;-71
2024/02/06 11:37:40;;;;;;;21.20;8.27;;;10.30;99.90;;;;;;5052596;28;20029;-70
2024/02/06 11:40:07;;;;;;;15.35;7.78;;;10.30;99.90;;;;;;5052280;28;20024;-71
2024/02/06 11:42:35;;;;;;;18.77;7.55;;;10.30;99.90;;;;;;5052808;28;20029;-72
2024/02/06 11:45:10;;;;;;;19.08;7.85;;;10.40;99.90;;;;;;5051467;28;20044;-71
2024/02/06 11:47:38;;;;;;;14.63;7.72;;;10.40;99.90;;;;;;5051201;28;20029;-70
2024/02/06 11:50:12;;;;;;;11.98;7.85;;;10.40;99.90;;;;;;5053178;28;20029;-71
2024/02/06 11:52:38;;;;;;;19.48;7.53;;;10.50;99.90;;;;;;5052258;28;20144;-71
2024/02/06 11:55:06;;;;;;;17.02;7.50;;;10.50;99.90;;;;;;5052778;28;20047;-71
2024/02/06 11:57:32;;;;;;;18.40;7.75;;;10.50;99.90;;;;;;5052701;28;20028;-71
2024/02/06 11:59:58;;;;;;;24.70;8.45;;;10.50;99.90;;;;;;5052490;28;20033;-71
2024/02/06 12:02:24;;;;;;;22.98;7.78;;;10.40;99.90;;;;;;5051032;28;20029;-71
2024/02/06 12:04:49;;;;;;;23.15;8.70;;;10.40;99.90;;;;;;5052170;28;20036;-71
2024/02/06 12:07:16;;;;;;;17.85;7.78;;;10.30;99.90;;;;;;5051814;28;20108;-71
2024/02/06 12:09:43;;;;;;;17.30;8.13;;;10.30;99.90;;;;;;5052186;28;20025;-70
2024/02/06 12:12:11;;;;;;;21.95;7.20;;;10.40;99.90;;;;;;5051433;28;20021;-71
2024/02/06 12:14:36;;;;;;;21.80;8.27;;;10.40;99.90;;;;;;5052300;28;20071;-71
2024/02/06 12:17:04;;;;;;;16.48;7.28;;;10.50;99.90;;;;;;5052703;28;20025;-71
2024/02/06 12:19:30;;;;;;;16.77;7.25;;;10.50;99.90;;;;;;5052355;28;20044;-71
2024/02/06 12:22:04;;;;;;;22.70;7.60;;;10.60;99.90;;;;;;5052693;28;20029;-71
2024/02/06 12:24:30;;;;;;;16.75;7.15;;;10.70;99.90;;;;;;5051721;28;20116;-71
2024/02/06 12:27:04;;;;;;;18.15;6.93;;;10.70;99.90;;;;;;5051760;28;20025;-71
2024/02/06 12:29:46;;;;;;;18.33;8.40;;;10.80;99.90;;;;;;5053103;28;20036;-70
2024/02/06 12:32:13;;;;;;;17.20;8.00;;;10.80;99.90;;;;;;5052377;28;20021;-70
2024/02/06 12:34:39;;;;;;;13.80;6.72;;;10.70;99.90;;;;;;5054814;28;20074;-71
2024/02/06 12:37:05;;;;;;;17.33;7.78;;;10.60;99.90;;;;;;5055983;28;20479;-71
2024/02/06 12:39:31;;;;;;;18.50;8.65;;;10.50;99.90;;;;;;5055949;28;20020;-71
2024/02/06 12:41:59;;;;;;;14.02;7.90;;;10.40;99.90;;;;;;5055886;28;20063;-71